Magdalena, NM (87825)

9:11 PM MST on November 17, 2017 (GMT -0700)
E end Magdalena | | Change Station

Elev 6572 ft 34.12 °N, 107.24 °W | Updated 8 seconds ago

Clear
Clear
55.6 °F
Feels Like 55.6 °F
N
10.3
Wind Variable Wind from SW
Gusts 15.0 mph

Today
High -- | Low -- °F
--% Chance of Precip.
Yesterday
High -- | Low -- °F
Precip. -- in
Pressure 29.98 in
Visibility 10.0 miles
Clouds Scattered Clouds 9000 ft
Mostly Cloudy 12000 ft
Dew Point 21 °F
Humidity 26%
Rainfall 0.00 in
Snow Depth Not available.
6:43 AM 5:03 PM
Waning Crescent, 0% visible
METAR KONM 180355Z AUTO 16005KT 10SM SCT090 BKN120 17/M03 A2998 RMK AO2 T01661033
Pressure 29.98 in
Visibility 10.0 miles
Clouds Scattered Clouds 9000 ft
Mostly Cloudy 12000 ft
Dew Point 21 °F
Humidity 26%
Rainfall 0.00 in
Snow Depth Not available.
6:43 AM 5:03 PM
Waning Crescent, 0% visible
METAR KONM 180355Z AUTO 16005KT 10SM SCT090 BKN120 17/M03 A2998 RMK AO2 T01661033

Get Severe Weather Alerts

Thanks for signing up!

Be on the lookout for a verification email in your inbox.

You'll start receiving the daily forecast at 6 AM.

×

10-Day Weather Forecast

Almanac

Astronomy

Nov. 17, 2017 Rise Set
Actual Time
Civil Twilight
Nautical Twilight
Astronomical Twilight
Moon
Length of Visible Light
Length of Day
Tomorrow will be .
, % of the Moon is Illuminated

Today's Extremes

State Highs State Lows

Community

WunderPhotos

Category 6

Welcome to Category 6. This is the collective home for Weather Underground's featured writeups by Dr. Jeff Masters (right), Bob Henson (left), Chris Burt, and other regular contributors.

Nearby

Air Quality

  Air Quality AQ Index Pollutant
Not available.

Snow Depth

Station Depth Elevation

Earthquake Activity

City Distance Mag. Time & Date
Minimum magnitude displayed is 2.5.

Coastal Water Temperatures

Place Temperature

Stations

Nearby Weather Stations

Station Location Temp. Windchill Dew Point Humidity Wind Precip. Elev Updated Type
                   

Watches & Warnings

There are currently no watches in effect.